Time;durP1;ratioP1;P1;durP2;ratioP2;P2;SDS_P1;SDS_P2;PMS_P1;PMS_P2;Temp;Humidity;BMP_temperature;BMP_pressure;BME280_temperature;BME280_humidity;BME280_pressure;Samples;Min_cycle;Max_cycle;Signal;HPM_P1;HPM_P2
2023/01/24 00:02:24;;;;;;;;;;;;;;;17.04;64.52;102603.81;7403234;19;1807;-51
2023/01/24 00:04:52;;;;;;;;;;;;;;;17.07;64.48;102602.81;7402186;19;1955;-50
2023/01/24 00:07:20;;;;;;;;;;;;;;;16.99;64.08;102604.97;7404028;19;2035;-51
2023/01/24 00:09:48;;;;;;;;;;;;;;;16.98;64.03;102608.59;7402586;19;2432;-51
2023/01/24 00:12:19;;;;;;;;;;;;;;;16.98;64.42;102611.28;7403615;19;1945;-50
2023/01/24 00:14:48;;;;;;;;;;;;;;;17.00;63.96;102602.22;7402700;19;1908;-50
2023/01/24 00:17:16;;;;;;;;;;;;;;;17.05;63.88;102613.56;7402320;19;1909;-51
2023/01/24 00:19:44;;;;;;;;;;;;;;;16.98;63.98;102603.25;7401804;19;1896;-50
2023/01/24 00:22:12;;;;;;;;;;;;;;;16.95;64.13;102614.97;7404140;19;1120;-50
2023/01/24 00:24:41;;;;;;;;;;;;;;;16.93;63.92;102606.19;7399763;19;2031;-50
2023/01/24 00:27:09;;;;;;;;;;;;;;;16.95;63.67;102614.97;7402012;19;1818;-50
2023/01/24 00:29:40;;;;;;;;;;;;;;;16.93;63.80;102611.53;7401549;19;1806;-50
2023/01/24 00:32:08;;;;;;;;;;;;;;;16.92;64.08;102612.44;7401692;19;1877;-51
2023/01/24 00:34:36;;;;;;;;;;;;;;;16.89;64.12;102615.25;7403634;19;1762;-51
2023/01/24 00:37:05;;;;;;;;;;;;;;;16.93;63.95;102624.00;7401856;19;1948;-51
2023/01/24 00:39:33;;;;;;;;;;;;;;;16.91;63.66;102602.72;7402193;19;1991;-51
2023/01/24 00:42:01;;;;;;;;;;;;;;;16.89;63.97;102602.78;7402661;19;1711;-50
2023/01/24 00:44:30;;;;;;;;;;;;;;;16.88;63.54;102600.19;7400684;19;1980;-50
2023/01/24 00:47:00;;;;;;;;;;;;;;;16.94;63.35;102618.56;7401530;19;1886;-50
2023/01/24 00:49:29;;;;;;;;;;;;;;;16.89;63.80;102605.47;7401445;19;2041;-50
2023/01/24 00:51:57;;;;;;;;;;;;;;;16.86;63.63;102612.75;7402409;19;1835;-50
2023/01/24 00:54:26;;;;;;;;;;;;;;;16.85;63.83;102614.56;7401158;19;2038;-50
2023/01/24 00:56:54;;;;;;;;;;;;;;;16.84;63.53;102590.59;7400902;19;1714;-50
2023/01/24 00:59:22;;;;;;;;;;;;;;;16.84;63.75;102603.94;7400029;19;1876;-51
2023/01/24 01:01:50;;;;;;;;;;;;;;;16.89;63.58;102601.91;7400867;19;2070;-50
2023/01/24 01:04:21;;;;;;;;;;;;;;;16.84;63.82;102599.47;7399825;19;1967;-50
2023/01/24 01:06:50;;;;;;;;;;;;;;;16.81;63.48;102601.38;7402011;19;1936;-50
2023/01/24 01:09:18;;;;;;;;;;;;;;;16.83;63.25;102604.88;7400372;19;2036;-50
2023/01/24 01:11:46;;;;;;;;;;;;;;;16.82;63.50;102624.53;7400663;19;1861;-50
2023/01/24 01:14:14;;;;;;;;;;;;;;;16.80;63.50;102608.53;7401290;19;2195;-51
2023/01/24 01:16:43;;;;;;;;;;;;;;;16.76;63.27;102604.28;7400737;19;1857;-51
2023/01/24 01:19:11;;;;;;;;;;;;;;;16.81;63.20;102593.38;7401245;19;1853;-51
2023/01/24 01:21:44;;;;;;;;;;;;;;;16.78;63.05;102596.22;7402384;19;1870;-50
2023/01/24 01:24:12;;;;;;;;;;;;;;;16.80;63.40;102605.00;7396887;19;2324;-50
2023/01/24 01:26:40;;;;;;;;;;;;;;;16.73;63.28;102604.44;7400618;19;1789;-51
2023/01/24 01:29:09;;;;;;;;;;;;;;;16.74;63.05;102597.31;7400897;19;1955;-51
2023/01/24 01:31:38;;;;;;;;;;;;;;;16.77;63.25;102598.03;7399662;19;1807;-50
2023/01/24 01:34:06;;;;;;;;;;;;;;;16.78;63.00;102581.03;7400576;19;1935;-50
2023/01/24 01:36:34;;;;;;;;;;;;;;;16.74;63.07;102589.28;7401779;19;2087;-50
2023/01/24 01:39:06;;;;;;;;;;;;;;;16.73;62.73;102587.53;7398724;19;2081;-50
2023/01/24 01:41:34;;;;;;;;;;;;;;;16.70;62.79;102570.72;7400083;19;1891;-50
2023/01/24 01:46:58;;;;;;;;;;;;;;;16.75;62.83;102588.34;7400602;19;1923;-50
2023/01/24 01:49:28;;;;;;;;;;;;;;;16.70;62.83;102578.75;7398241;19;1943;-50
2023/01/24 01:51:59;;;;;;;;;;;;;;;16.74;62.65;102586.63;7400114;19;1842;-50
2023/01/24 01:54:32;;;;;;;;;;;;;;;16.71;62.70;102574.25;7399475;19;2016;-51
2023/01/24 01:57:02;;;;;;;;;;;;;;;16.73;62.70;102576.84;7400286;19;2052;-50
2023/01/24 01:59:34;;;;;;;;;;;;;;;16.72;62.57;102575.16;7400741;19;1834;-50
2023/01/24 02:02:03;;;;;;;;;;;;;;;16.69;62.64;102570.81;7400841;19;1940;-51
2023/01/24 02:04:34;;;;;;;;;;;;;;;16.69;62.59;102579.69;7397641;19;2040;-50
2023/01/24 02:07:03;;;;;;;;;;;;;;;16.68;62.84;102574.44;7400244;19;2008;-51
2023/01/24 02:09:35;;;;;;;;;;;;;;;16.67;62.78;102578.03;7398933;19;1750;-51
2023/01/24 02:12:05;;;;;;;;;;;;;;;16.65;62.96;102580.78;7400032;19;1933;-50
2023/01/24 02:17:18;;;;;;;;;;;;;;;16.62;62.66;102580.94;7401101;19;1756;-51
2023/01/24 02:20:01;;;;;;;;;;;;;;;16.63;62.93;102589.81;7399214;19;2009;-50
2023/01/24 02:22:35;;;;;;;;;;;;;;;16.62;62.97;102577.41;7399464;19;2089;-51
2023/01/24 02:25:09;;;;;;;;;;;;;;;16.63;62.59;102596.03;7397848;19;2005;-50
2023/01/24 02:27:40;;;;;;;;;;;;;;;16.64;62.48;102600.41;7398638;19;1942;-51
2023/01/24 02:30:08;;;;;;;;;;;;;;;16.64;62.39;102595.06;7399477;19;1931;-51
2023/01/24 02:32:37;;;;;;;;;;;;;;;16.63;62.54;102597.81;7394759;19;1899;-50
2023/01/24 02:35:06;;;;;;;;;;;;;;;16.60;62.67;102593.50;7397980;19;1874;-50
2023/01/24 02:37:34;;;;;;;;;;;;;;;16.59;62.61;102607.81;7399219;19;1920;-50
2023/01/24 02:40:05;;;;;;;;;;;;;;;16.57;62.79;102593.63;7400125;19;1918;-51
2023/01/24 02:42:35;;;;;;;;;;;;;;;16.58;62.33;102590.03;7398051;19;1721;-50
2023/01/24 02:45:10;;;;;;;;;;;;;;;16.58;62.40;102589.19;7398007;19;2066;-50
2023/01/24 02:47:42;;;;;;;;;;;;;;;16.63;62.05;102598.72;7399290;19;1902;-51
2023/01/24 02:50:11;;;;;;;;;;;;;;;16.99;62.30;102588.94;7398292;19;1932;-51
2023/01/24 02:55:20;;;;;;;;;;;;;;;18.91;57.07;102581.16;7399357;19;1140;-50
2023/01/24 03:00:32;;;;;;;;;;;;;;;19.81;54.86;102565.88;7400023;19;1914;-51
2023/01/24 03:03:00;;;;;;;;;;;;;;;20.01;53.99;102578.91;7405944;19;2058;-51
2023/01/24 03:05:39;;;;;;;;;;;;;;;20.06;54.68;102598.28;7403045;19;1862;-51
2023/01/24 03:08:07;;;;;;;;;;;;;;;19.99;54.46;102596.94;7399149;19;1840;-51
2023/01/24 03:10:36;;;;;;;;;;;;;;;19.97;54.82;102582.75;7406320;19;1799;-52
2023/01/24 03:34:45;;;;;;;;;;;;;;;20.32;54.57;102603.81;7404420;19;1835;-51
2023/01/24 03:37:14;;;;;;;;;;;;;;;20.21;54.54;102596.44;7404192;19;999;-51
2023/01/24 03:39:58;;;;;;;;;;;;;;;20.12;55.20;102599.72;7403728;19;1906;-51
2023/01/24 03:42:26;;;;;;;;;;;;;;;20.21;55.31;102607.19;7404368;19;1937;-51
2023/01/24 03:44:55;;;;;;;;;;;;;;;20.51;54.78;102606.13;7403406;19;2013;-51
2023/01/24 03:47:26;;;;;;;;;;;;;;;20.68;54.65;102612.28;7404281;19;1927;-51
2023/01/24 03:52:35;;;;;;;;;;;;;;;20.57;55.03;102616.50;7404078;19;1940;-51
2023/01/24 03:55:03;;;;;;;;;;;;;;;20.64;55.00;102615.16;7403390;19;2014;-52
2023/01/24 03:57:32;;;;;;;;;;;;;;;20.66;54.87;102602.47;7403652;19;1924;-52
2023/01/24 04:00:00;;;;;;;;;;;;;;;20.35;55.82;102622.44;7404785;19;1884;-50
2023/01/24 04:02:31;;;;;;;;;;;;;;;19.30;58.37;102629.81;7403293;19;1690;-52
2023/01/24 04:07:40;;;;;;;;;;;;;;;18.25;61.51;102641.19;7403828;19;2053;-52
2023/01/24 04:10:09;;;;;;;;;;;;;;;18.93;59.64;102624.84;7402001;19;1969;-52
2023/01/24 04:12:37;;;;;;;;;;;;;;;19.31;58.69;102621.69;7401378;19;1850;-51
2023/01/24 04:15:06;;;;;;;;;;;;;;;19.35;58.98;102635.78;7403370;19;1797;-52
2023/01/24 04:17:37;;;;;;;;;;;;;;;19.36;58.65;102633.03;7402530;19;1884;-52
2023/01/24 04:20:06;;;;;;;;;;;;;;;19.76;57.66;102633.28;7402089;19;1565;-52
2023/01/24 04:22:34;;;;;;;;;;;;;;;19.62;58.20;102638.63;7404289;19;1040;-52
2023/01/24 04:25:02;;;;;;;;;;;;;;;19.61;58.27;102620.78;7402402;19;2104;-52
2023/01/24 04:27:31;;;;;;;;;;;;;;;19.54;58.71;102638.25;7402560;19;1937;-52
2023/01/24 04:29:59;;;;;;;;;;;;;;;19.52;58.44;102629.38;7402942;19;1984;-52
2023/01/24 04:32:27;;;;;;;;;;;;;;;19.58;58.45;102634.41;7401136;19;2094;-51
2023/01/24 04:34:58;;;;;;;;;;;;;;;19.50;58.54;102642.03;7402439;19;1768;-52
2023/01/24 04:37:26;;;;;;;;;;;;;;;19.47;58.84;102649.31;7404461;19;960;-52
2023/01/24 04:39:55;;;;;;;;;;;;;;;19.50;59.17;102647.41;7402248;19;1856;-51
2023/01/24 04:42:23;;;;;;;;;;;;;;;19.49;59.17;102641.19;7402050;19;2340;-51
2023/01/24 04:44:51;;;;;;;;;;;;;;;19.67;58.42;102639.19;7401749;19;1904;-52
2023/01/24 04:47:20;;;;;;;;;;;;;;;19.66;58.37;102640.16;7401794;19;2243;-52
2023/01/24 04:49:48;;;;;;;;;;;;;;;19.77;58.10;102640.38;7400878;19;1950;-52
2023/01/24 04:52:19;;;;;;;;;;;;;;;19.74;58.10;102651.31;7402999;19;1045;-51
2023/01/24 04:54:47;;;;;;;;;;;;;;;19.64;58.59;102648.31;7401298;19;1904;-51
2023/01/24 04:57:15;;;;;;;;;;;;;;;19.61;58.63;102635.06;7402242;19;1939;-51
2023/01/24 04:59:44;;;;;;;;;;;;;;;19.68;58.87;102641.78;7402032;19;1763;-52
2023/01/24 05:02:12;;;;;;;;;;;;;;;19.66;58.68;102637.47;7401468;19;1978;-51
2023/01/24 05:04:42;;;;;;;;;;;;;;;19.71;58.58;102646.13;7399900;19;2058;-51
2023/01/24 05:07:10;;;;;;;;;;;;;;;19.72;58.72;102642.50;7401953;19;1886;-51
2023/01/24 05:09:41;;;;;;;;;;;;;;;19.71;58.79;102642.56;7334036;19;13741;-52
2023/01/24 05:12:09;;;;;;;;;;;;;;;19.66;59.15;102648.22;7402191;19;1519;-51
2023/01/24 05:14:37;;;;;;;;;;;;;;;19.73;58.58;102646.03;7401169;19;1648;-52
2023/01/24 05:17:06;;;;;;;;;;;;;;;19.70;58.71;102649.75;7400697;19;1915;-52
2023/01/24 05:19:34;;;;;;;;;;;;;;;19.69;58.80;102645.31;7400508;19;1785;-52
2023/01/24 05:22:03;;;;;;;;;;;;;;;19.61;59.86;102661.03;7399990;19;1811;-50
2023/01/24 05:24:31;;;;;;;;;;;;;;;19.69;59.08;102658.75;7393687;19;2091;-51
2023/01/24 05:27:02;;;;;;;;;;;;;;;19.74;58.91;102645.94;7400758;19;2200;-51
2023/01/24 05:29:30;;;;;;;;;;;;;;;19.66;59.58;102658.94;7396490;19;1931;-50
2023/01/24 05:31:58;;;;;;;;;;;;;;;19.75;59.09;102652.19;7401200;19;1913;-51
2023/01/24 05:34:26;;;;;;;;;;;;;;;19.73;59.59;102660.31;7399935;19;1706;-52
2023/01/24 05:36:55;;;;;;;;;;;;;;;19.76;59.18;102657.47;7398668;19;1762;-51
2023/01/24 05:39:23;;;;;;;;;;;;;;;19.78;59.03;102665.44;7398311;19;1752;-51
2023/01/24 05:41:51;;;;;;;;;;;;;;;19.82;59.02;102661.59;7399307;19;1642;-51
2023/01/24 05:44:22;;;;;;;;;;;;;;;19.76;59.39;102665.50;7400303;19;2042;-52
2023/01/24 05:46:50;;;;;;;;;;;;;;;19.82;59.46;102658.91;7400232;19;1657;-52
2023/01/24 05:49:19;;;;;;;;;;;;;;;19.74;59.74;102669.25;7399105;19;1754;-51
2023/01/24 05:51:47;;;;;;;;;;;;;;;19.74;59.13;102662.06;7398360;19;1896;-50
2023/01/24 05:54:15;;;;;;;;;;;;;;;19.82;59.33;102666.97;7399028;19;2189;-51
2023/01/24 05:56:44;;;;;;;;;;;;;;;19.71;59.02;102674.75;7398500;19;1749;-51
2023/01/24 05:59:13;;;;;;;;;;;;;;;19.56;59.12;102674.75;7397894;19;1809;-51
2023/01/24 06:01:44;;;;;;;;;;;;;;;19.70;58.90;102678.41;7396462;19;1874;-51
2023/01/24 06:04:12;;;;;;;;;;;;;;;19.75;58.89;102676.34;7399580;19;1747;-50
2023/01/24 06:06:41;;;;;;;;;;;;;;;19.76;58.99;102667.34;7395884;19;1843;-51
2023/01/24 06:09:09;;;;;;;;;;;;;;;19.73;59.06;102681.78;7398675;19;1938;-51
2023/01/24 06:11:37;;;;;;;;;;;;;;;19.79;58.73;102688.59;7399992;19;1722;-50
2023/01/24 06:14:05;;;;;;;;;;;;;;;19.80;58.70;102684.97;7398649;19;1821;-51
2023/01/24 06:16:34;;;;;;;;;;;;;;;19.80;58.92;102688.53;7398058;19;1717;-51
2023/01/24 06:19:05;;;;;;;;;;;;;;;19.73;58.75;102676.41;7399793;19;2023;-51
2023/01/24 06:21:44;;;;;;;;;;;;;;;19.70;59.36;102681.97;7399492;19;2821;-51
2023/01/24 06:24:17;;;;;;;;;;;;;;;19.67;59.09;102677.63;7397679;19;1730;-51
2023/01/24 06:26:46;;;;;;;;;;;;;;;19.77;58.47;102688.69;7395503;19;1846;-51
2023/01/24 06:29:15;;;;;;;;;;;;;;;19.71;58.82;102683.72;7400004;19;1833;-51
2023/01/24 06:31:49;;;;;;;;;;;;;;;19.77;58.51;102693.22;7399288;19;1904;-51
2023/01/24 06:34:35;;;;;;;;;;;;;;;19.69;58.68;102693.63;7400212;19;1888;-51
2023/01/24 06:37:12;;;;;;;;;;;;;;;19.73;58.63;102695.22;7405269;19;1777;-51
2023/01/24 06:39:41;;;;;;;;;;;;;;;19.78;58.87;102711.91;7406355;19;1923;-51
2023/01/24 06:42:10;;;;;;;;;;;;;;;19.76;58.74;102708.47;7406040;19;1753;-51
2023/01/24 06:44:39;;;;;;;;;;;;;;;19.71;58.59;102701.59;7405991;19;2147;-51
2023/01/24 06:47:10;;;;;;;;;;;;;;;19.74;58.69;102710.38;7402449;19;1926;-51
2023/01/24 06:49:38;;;;;;;;;;;;;;;19.39;60.21;102705.25;7404741;19;2145;-50
2023/01/24 06:52:09;;;;;;;;;;;;;;;18.72;61.48;102717.16;7405172;19;1853;-50
2023/01/24 06:54:38;;;;;;;;;;;;;;;18.27;63.13;102731.19;7405453;19;2054;-51
2023/01/24 06:57:06;;;;;;;;;;;;;;;18.04;63.56;102731.56;7405478;19;1820;-51
2023/01/24 06:59:35;;;;;;;;;;;;;;;17.86;63.95;102707.47;7404162;19;2225;-51
2023/01/24 07:02:03;;;;;;;;;;;;;;;17.70;64.18;102714.56;7405751;19;1696;-51
2023/01/24 07:04:31;;;;;;;;;;;;;;;17.63;64.44;102721.19;7403973;19;2244;-50
2023/01/24 07:07:00;;;;;;;;;;;;;;;17.59;64.50;102727.63;7402060;19;1822;-51
2023/01/24 07:09:31;;;;;;;;;;;;;;;17.52;64.56;102732.41;7404831;19;1889;-51
2023/01/24 07:11:59;;;;;;;;;;;;;;;18.71;60.62;102718.13;7402882;19;1835;-51
2023/01/24 07:14:28;;;;;;;;;;;;;;;19.33;59.06;102721.72;7401327;19;1921;-52
2023/01/24 07:16:57;;;;;;;;;;;;;;;19.27;59.26;102709.53;7402115;19;2007;-51
2023/01/24 07:19:25;;;;;;;;;;;;;;;18.79;60.53;102729.28;7401630;19;1934;-51
2023/01/24 07:21:56;;;;;;;;;;;;;;;18.20;62.04;102739.63;7402262;19;1026;-51
2023/01/24 07:24:26;;;;;;;;;;;;;;;17.88;63.15;102740.38;7400649;19;2021;-51
2023/01/24 07:26:58;;;;;;;;;;;;;;;17.66;63.64;102740.59;7400448;19;1857;-52
2023/01/24 07:29:26;;;;;;;;;;;;;;;18.72;60.66;102730.56;7403414;19;1873;-51
2023/01/24 07:31:55;;;;;;;;;;;;;;;19.37;59.04;102717.91;7405010;19;1974;-52
2023/01/24 07:34:23;;;;;;;;;;;;;;;19.33;59.00;102705.63;7405189;19;1883;-51
2023/01/24 07:36:51;;;;;;;;;;;;;;;18.83;60.15;102737.09;7403756;19;1396;-51
2023/01/24 07:39:20;;;;;;;;;;;;;;;18.23;62.19;102732.31;7404066;19;1642;-51
2023/01/24 07:41:50;;;;;;;;;;;;;;;17.89;63.21;102736.78;7404427;19;1914;-51
2023/01/24 07:44:21;;;;;;;;;;;;;;;17.63;63.88;102724.72;7403161;19;1909;-51
2023/01/24 07:46:49;;;;;;;;;;;;;;;18.87;60.35;102719.03;7400955;19;1826;-51
2023/01/24 07:49:17;;;;;;;;;;;;;;;19.43;58.99;102722.03;7404762;19;2196;-51
2023/01/24 07:51:48;;;;;;;;;;;;;;;19.31;59.32;102712.91;7404959;19;1692;-51
2023/01/24 07:54:19;;;;;;;;;;;;;;;18.77;60.16;102736.53;7401951;19;1895;-51
2023/01/24 07:56:48;;;;;;;;;;;;;;;18.13;62.32;102711.47;7404075;19;1622;-51
2023/01/24 07:59:16;;;;;;;;;;;;;;;17.77;63.00;102725.81;7404382;19;1602;-51
2023/01/24 08:01:47;;;;;;;;;;;;;;;17.92;62.97;102734.88;7404670;19;1769;-51
2023/01/24 08:04:16;;;;;;;;;;;;;;;19.07;60.08;102716.03;7404566;19;1951;-51
2023/01/24 08:07:16;;;;;;;;;;;;;;;19.41;58.96;102703.34;7402858;19;1847;-51
2023/01/24 08:09:33;;;;;;;;;;;;;;;19.04;59.81;102710.88;7402763;19;1940;-51
2023/01/24 08:12:01;;;;;;;;;;;;;;;18.43;61.84;102725.00;7403639;19;1924;-51
2023/01/24 08:14:29;;;;;;;;;;;;;;;17.95;62.89;102716.00;7403153;19;1913;-51
2023/01/24 08:17:00;;;;;;;;;;;;;;;17.68;63.66;102732.50;7404351;19;1869;-52
2023/01/24 08:19:29;;;;;;;;;;;;;;;18.50;61.52;102726.38;7401956;19;1923;-52
2023/01/24 08:21:57;;;;;;;;;;;;;;;19.04;59.86;102710.88;7402301;19;1672;-52
2023/01/24 08:24:25;;;;;;;;;;;;;;;19.34;59.17;102728.81;7402044;19;1764;-51
2023/01/24 08:26:54;;;;;;;;;;;;;;;18.93;60.47;102718.66;7401073;19;1847;-51
2023/01/24 08:29:22;;;;;;;;;;;;;;;18.21;61.09;102723.50;7400785;19;1795;-51
2023/01/24 08:31:50;;;;;;;;;;;;;;;17.75;61.59;102717.00;7403620;19;1496;-51
2023/01/24 08:34:21;;;;;;;;;;;;;;;17.78;62.57;102722.19;7402281;19;1936;-51
2023/01/24 08:36:50;;;;;;;;;;;;;;;18.61;60.52;102728.50;7401870;19;1981;-51
2023/01/24 08:39:18;;;;;;;;;;;;;;;19.06;60.10;102716.16;7401545;19;1966;-51
2023/01/24 08:41:47;;;;;;;;;;;;;;;19.07;60.01;102716.03;7402277;19;1940;-51
2023/01/24 08:44:16;;;;;;;;;;;;;;;18.46;61.54;102722.16;7402682;19;1651;-50
2023/01/24 08:46:45;;;;;;;;;;;;;;;17.97;63.25;102722.13;7401416;19;1983;-50
2023/01/24 08:49:13;;;;;;;;;;;;;;;17.64;63.59;102722.91;7402146;19;1755;-51
2023/01/24 08:51:44;;;;;;;;;;;;;;;17.76;63.83;102735.63;7403459;19;2016;-50
2023/01/24 08:54:13;;;;;;;;;;;;;;;18.35;62.16;102721.91;7400067;19;1870;-51
2023/01/24 08:56:41;;;;;;;;;;;;;;;18.85;60.35;102721.78;7400975;19;1756;-51
2023/01/24 08:59:09;;;;;;;;;;;;;;;19.10;59.98;102717.72;7401117;19;1819;-51
2023/01/24 09:01:38;;;;;;;;;;;;;;;19.07;59.35;102721.41;7402713;19;1607;-51
2023/01/24 09:04:06;;;;;;;;;;;;;;;18.97;58.58;102701.44;7401681;19;1981;-51
2023/01/24 09:06:34;;;;;;;;;;;;;;;19.05;58.83;102717.09;7399614;19;1842;-51
2023/01/24 09:09:06;;;;;;;;;;;;;;;19.08;58.78;102715.13;7400654;19;1789;-51
2023/01/24 09:11:34;;;;;;;;;;;;;;;19.15;58.94;102723.66;7401827;19;1727;-51
2023/01/24 09:14:02;;;;;;;;;;;;;;;19.23;58.86;102709.81;7400580;19;1634;-51
2023/01/24 09:16:31;;;;;;;;;;;;;;;19.22;58.31;102706.25;7401359;19;1764;-51
2023/01/24 09:18:59;;;;;;;;;;;;;;;19.23;58.31;102715.16;7399366;19;1686;-50
2023/01/24 09:21:27;;;;;;;;;;;;;;;18.66;56.63;102723.72;7401410;19;1499;-51
2023/01/24 09:23:56;;;;;;;;;;;;;;;18.11;54.41;102727.63;7399114;19;1866;-51
2023/01/24 09:26:27;;;;;;;;;;;;;;;18.01;52.66;102713.00;7400768;19;1958;-51
2023/01/24 09:28:55;;;;;;;;;;;;;;;17.88;50.39;102713.63;7401684;19;1922;-51
2023/01/24 09:31:23;;;;;;;;;;;;;;;17.63;50.66;102697.09;7400240;19;1603;-51
2023/01/24 09:33:51;;;;;;;;;;;;;;;17.53;50.38;102720.78;7401540;19;1784;-51
2023/01/24 09:36:20;;;;;;;;;;;;;;;17.34;50.91;102718.16;7401360;19;1885;-51
2023/01/24 09:38:52;;;;;;;;;;;;;;;17.46;48.84;102705.97;7397115;19;1753;-51
2023/01/24 09:41:27;;;;;;;;;;;;;;;18.15;49.50;102715.78;7401010;19;2001;-52
2023/01/24 09:44:01;;;;;;;;;;;;;;;18.60;49.73;102716.91;7401611;19;1942;-52
2023/01/24 09:46:32;;;;;;;;;;;;;;;18.82;50.28;102716.59;7400099;19;1860;-52
2023/01/24 09:49:04;;;;;;;;;;;;;;;18.95;50.73;102710.53;7400656;19;1968;-52
2023/01/24 09:51:34;;;;;;;;;;;;;;;19.03;51.33;102703.78;7401625;19;1859;-50
2023/01/24 09:54:03;;;;;;;;;;;;;;;19.07;51.71;102699.97;7397917;19;1871;-51
2023/01/24 09:56:35;;;;;;;;;;;;;;;19.05;52.27;102701.88;7400958;19;1744;-51
2023/01/24 09:59:15;;;;;;;;;;;;;;;19.16;52.42;102703.94;7400068;19;1930;-51
2023/01/24 10:01:43;;;;;;;;;;;;;;;18.99;52.86;102699.53;7399713;19;2313;-51
2023/01/24 10:04:17;;;;;;;;;;;;;;;19.06;53.59;102702.75;7398226;19;1820;-51
2023/01/24 10:06:50;;;;;;;;;;;;;;;19.17;53.50;102702.97;7398870;19;1852;-51
2023/01/24 10:09:24;;;;;;;;;;;;;;;19.14;53.97;102700.50;7400057;19;1861;-51
2023/01/24 10:11:58;;;;;;;;;;;;;;;19.00;54.33;102693.25;7404699;19;1735;-51
2023/01/24 10:14:37;;;;;;;;;;;;;;;18.91;54.92;102699.13;7407043;19;1865;-52
2023/01/24 10:17:18;;;;;;;;;;;;;;;18.93;55.12;102685.63;7406581;19;1625;-51
2023/01/24 10:19:55;;;;;;;;;;;;;;;19.04;54.97;102700.16;7405188;19;1745;-52
2023/01/24 10:22:36;;;;;;;;;;;;;;;19.01;55.32;102699.47;7407509;19;1658;-52
2023/01/24 10:25:06;;;;;;;;;;;;;;;19.02;55.34;102693.13;7406952;19;1827;-52
2023/01/24 10:27:37;;;;;;;;;;;;;;;18.95;55.67;102694.47;7405285;19;1855;-52
2023/01/24 10:30:19;;;;;;;;;;;;;;;18.66;56.20;102707.66;7404387;19;1723;-51
2023/01/24 10:32:49;;;;;;;;;;;;;;;18.14;57.54;102703.34;7406689;19;1771;-51
2023/01/24 10:35:22;;;;;;;;;;;;;;;17.84;58.96;102701.34;7405625;19;2320;-51
2023/01/24 10:37:55;;;;;;;;;;;;;;;17.61;59.66;102699.84;7406056;19;1688;-51
2023/01/24 10:40:24;;;;;;;;;;;;;;;18.31;57.73;102681.00;7405915;19;1607;-51
2023/01/24 10:42:53;;;;;;;;;;;;;;;18.97;56.05;102687.19;7406478;19;1968;-50
2023/01/24 10:45:38;;;;;;;;;;;;;;;18.89;56.53;102663.50;7404764;19;2380;-51
2023/01/24 10:48:11;;;;;;;;;;;;;;;18.23;57.48;102660.00;7402464;19;1868;-50
2023/01/24 10:50:43;;;;;;;;;;;;;;;17.89;58.88;102677.03;7405865;19;1870;-51
2023/01/24 10:53:15;;;;;;;;;;;;;;;17.82;59.34;102670.22;7404965;19;1614;-51
2023/01/24 10:55:44;;;;;;;;;;;;;;;18.39;57.96;102667.19;7404526;19;1643;-52
2023/01/24 10:58:26;;;;;;;;;;;;;;;18.77;56.87;102672.22;7404610;19;1607;-52
2023/01/24 11:01:01;;;;;;;;;;;;;;;19.10;55.97;102673.91;7402997;19;1997;-51
2023/01/24 11:03:30;;;;;;;;;;;;;;;19.18;56.12;102648.41;7405792;19;1931;-52
2023/01/24 11:05:59;;;;;;;;;;;;;;;19.22;56.12;102655.31;7406875;19;1682;-51
2023/01/24 11:08:28;;;;;;;;;;;;;;;19.37;55.74;102639.25;7403008;19;1889;-51
2023/01/24 11:10:58;;;;;;;;;;;;;;;19.41;55.34;102652.38;7406411;19;1820;-50
2023/01/24 11:13:28;;;;;;;;;;;;;;;19.34;55.75;102645.66;7406985;19;2932;-51
2023/01/24 11:16:03;;;;;;;;;;;;;;;19.48;55.41;102639.47;7405205;19;1890;-52
2023/01/24 11:18:33;;;;;;;;;;;;;;;19.45;55.49;102629.75;7404974;19;1753;-52
2023/01/24 11:21:09;;;;;;;;;;;;;;;19.50;55.77;102636.66;7403239;19;1879;-51
2023/01/24 11:23:37;;;;;;;;;;;;;;;19.22;56.44;102631.16;7403744;19;1689;-51
2023/01/24 11:26:06;;;;;;;;;;;;;;;19.03;56.74;102622.47;7405626;19;1715;-52
2023/01/24 11:28:36;;;;;;;;;;;;;;;18.66;57.63;102633.50;7404105;19;1847;-51
2023/01/24 11:31:09;;;;;;;;;;;;;;;18.17;59.09;102638.94;7404235;19;1906;-51
2023/01/24 11:33:58;;;;;;;;;;;;;;;17.81;60.14;102631.06;7405141;19;2157;-50
2023/01/24 11:36:34;;;;;;;;;;;;;;;17.83;60.31;102634.50;7404652;19;2192;-50
2023/01/24 11:39:05;;;;;;;;;;;;;;;18.37;58.93;102607.50;7402840;19;1609;-51
2023/01/24 11:41:37;;;;;;;;;;;;;;;18.93;57.32;102626.66;7401066;19;1753;-51
2023/01/24 11:44:20;;;;;;;;;;;;;;;19.22;56.58;102611.53;7401303;19;2053;-51
2023/01/24 11:46:54;;;;;;;;;;;;;;;19.28;56.64;102616.53;7398295;19;1841;-51
2023/01/24 11:49:31;;;;;;;;;;;;;;;19.24;56.47;102604.25;7402148;19;1773;-51
2023/01/24 11:52:02;;;;;;;;;;;;;;;19.24;56.52;102597.06;7403943;19;1614;-52
2023/01/24 11:54:41;;;;;;;;;;;;;;;19.34;56.47;102615.28;7401535;19;2104;-51
2023/01/24 11:57:15;;;;;;;;;;;;;;;19.19;56.80;102606.34;7403551;19;1878;-51
2023/01/24 11:59:50;;;;;;;;;;;;;;;19.26;56.24;102613.06;7403632;19;1878;-51
2023/01/24 12:02:33;;;;;;;;;;;;;;;19.28;56.14;102621.91;7403494;19;1819;-51
2023/01/24 12:05:15;;;;;;;;;;;;;;;19.28;56.42;102600.44;7401564;19;1846;-51
2023/01/24 12:07:49;;;;;;;;;;;;;;;19.25;56.62;102612.19;7403157;19;1921;-51
2023/01/24 12:10:21;;;;;;;;;;;;;;;19.40;56.32;102625.66;7401795;19;1476;-51
2023/01/24 12:12:52;;;;;;;;;;;;;;;19.39;56.41;102614.03;7401395;19;1730;-51
2023/01/24 12:15:26;;;;;;;;;;;;;;;19.45;56.38;102610.13;7402570;19;1575;-50
2023/01/24 12:18:04;;;;;;;;;;;;;;;19.50;55.91;102610.72;7402939;19;2074;-50
2023/01/24 12:20:48;;;;;;;;;;;;;;;19.47;55.80;102605.53;7403092;19;1879;-51
2023/01/24 12:23:22;;;;;;;;;;;;;;;19.46;55.86;102619.91;7401352;19;1661;-51
2023/01/24 12:25:52;;;;;;;;;;;;;;;19.39;55.90;102621.22;7403381;19;1696;-51
2023/01/24 12:28:26;;;;;;;;;;;;;;;19.33;56.44;102614.41;7399813;19;1865;-51
2023/01/24 12:30:56;;;;;;;;;;;;;;;19.28;56.47;102616.53;7401170;19;2054;-51
2023/01/24 12:33:27;;;;;;;;;;;;;;;19.48;55.77;102618.00;7400698;19;1631;-50
2023/01/24 12:35:58;;;;;;;;;;;;;;;19.40;56.12;102615.78;7400893;19;1682;-51
2023/01/24 12:38:36;;;;;;;;;;;;;;;19.33;55.74;102611.72;7401159;19;1714;-50
2023/01/24 12:41:09;;;;;;;;;;;;;;;19.41;55.71;102606.75;7400701;19;2032;-51
2023/01/24 12:43:52;;;;;;;;;;;;;;;19.53;56.07;102604.28;7398450;19;1659;-51
2023/01/24 12:46:24;;;;;;;;;;;;;;;18.69;58.96;102614.53;7389921;19;2281;-52
2023/01/24 12:48:55;;;;;;;;;;;;;;;18.21;60.33;102631.59;7394731;19;1849;-51
2023/01/24 12:51:26;;;;;;;;;;;;;;;17.91;61.75;102620.75;7395622;19;1642;-50
2023/01/24 12:54:10;;;;;;;;;;;;;;;17.80;62.20;102643.53;7399620;19;1924;-51
2023/01/24 12:56:45;;;;;;;;;;;;;;;18.69;59.59;102619.91;7399899;19;1889;-51
2023/01/24 12:59:14;;;;;;;;;;;;;;;19.92;56.45;102610.88;7399837;19;1707;-50
2023/01/24 13:01:57;;;;;;;;;;;;;;;19.95;56.80;102613.34;7400159;19;1751;-51
2023/01/24 13:04:33;;;;;;;;;;;;;;;19.87;57.18;102619.19;6368197;19;10000745;-51
2023/01/24 13:07:09;;;;;;;;;;;;;;;19.83;57.02;102613.16;7392109;19;1861;-51
2023/01/24 13:09:42;;;;;;;;;;;;;;;19.57;56.96;102562.88;7390882;19;1565;-51
2023/01/24 13:12:14;;;;;;;;;;;;;;;19.80;57.10;102594.56;7393763;19;1843;-51
2023/01/24 13:14:43;;;;;;;;;;;;;;;19.74;57.20;102597.63;7392135;19;1759;-52
2023/01/24 13:17:21;;;;;;;;;;;;;;;19.74;57.12;102597.63;7392932;19;1810;-51
2023/01/24 13:20:00;;;;;;;;;;;;;;;19.74;57.08;102588.72;7393033;19;1749;-52
2023/01/24 13:22:44;;;;;;;;;;;;;;;19.66;57.34;102589.16;7393765;19;1772;-52
2023/01/24 13:25:23;;;;;;;;;;;;;;;19.62;57.59;102593.00;7394152;19;1848;-52
2023/01/24 13:27:56;;;;;;;;;;;;;;;19.60;57.75;102585.03;7392389;19;1872;-52
2023/01/24 13:30:31;;;;;;;;;;;;;;;19.65;57.41;102592.78;7394220;19;1722;-52
2023/01/24 13:33:00;;;;;;;;;;;;;;;19.59;57.62;102603.91;7393804;19;2015;-52
2023/01/24 13:35:29;;;;;;;;;;;;;;;19.42;57.79;102603.13;7393133;19;1525;-51
2023/01/24 13:38:05;;;;;;;;;;;;;;;19.67;57.06;102606.97;7391136;19;2063;-52
2023/01/24 13:40:40;;;;;;;;;;;;;;;19.62;57.49;102630.56;7390397;19;1777;-51
2023/01/24 13:43:30;;;;;;;;;;;;;;;19.77;57.18;102613.53;7394144;19;1919;-52